Letzte erfasste Runde: Stefan Schreiner - 34:36.918 - Porsche 917/30 Spyder - simtraxx_targa_florio_trophy - 16.08.2022 02:04:00
Platz Datum Fahrer Zeit Diff S1 S2 S3 Fahrzeug Session KG Reifen Restriktor Runden
- - Theoretische Bestzeit 1:29.114 - 31.200 22.379 35.535 - - - - - -
1 11.08.2022 Gerijon Morgenstern 1:42.251 - 40.376 22.379 39.496 Audi R8 LMS Evo (2019) Race 20 S 0 35
2 11.08.2022 Florian Mattis 1:42.494 0.243 40.246 22.491 39.757 Audi R8 LMS Evo (2019) Race 20 S 0 35
3 11.08.2022 Markus Studer 1:42.725 0.474 40.396 22.442 39.887 Nissan GT-R GT3 Race 0 S 0 35
4 11.08.2022 Manfred Rödger 1:42.759 0.508 40.352 22.618 39.789 Ferrari 488 GT3 Race 10 S 0 18
5 11.08.2022 Thomas Mayr 1:42.759 0.508 40.578 22.544 39.637 McLaren 650S GT3 Race 20 S 0 35
6 11.08.2022 Bernd Wimmer 1:42.846 0.595 40.268 22.730 39.848 Porsche 911 GT3 R 2016 Race 10 S 0 35
7 11.08.2022 René Beitz 1:42.946 0.695 40.500 22.544 39.902 Nissan GT-R GT3 Race 0 S 0 35
8 11.08.2022 Frank Weiss 1:43.064 0.813 40.334 22.789 39.941 Chevrolet Corvette C7R GT3 Race 0 S 0 35
9 11.08.2022 Florian Raupach 1:43.199 0.948 40.533 22.603 40.063 McLaren 650S GT3 Race 20 S 0 35
10 11.08.2022 Michel Sipply 1:43.380 1.129 40.672 22.649 40.059 URD Bayro 4 GT3 Race 0 S 0 35
11 11.08.2022 Tobias Kuppe 1:43.516 1.265 40.673 22.496 40.347 Chevrolet Corvette C7R GT3 Race 0 S 0 34
12 11.08.2022 Jari Stark 1:43.668 1.417 40.811 22.690 40.167 RSS GT-M Lanzo V10 Race 0 S 10 34
13 08.06.2022 Max Staude 1:47.771 5.520 31.293 40.759 35.719 Audi RS3 TCR Race 0 Endura 0 34
14 08.06.2022 Alexander Haider 1:47.790 5.539 31.200 41.055 35.535 Audi RS3 TCR Race 0 Endura 0 34
15 08.06.2022 Maik Neumann 1:47.808 5.557 31.319 40.735 35.754 Audi RS3 TCR Race 0 Endura 0 34
16 08.06.2022 Ronny Moegel 1:48.050 5.799 31.429 40.743 35.878 Seat Cupra TCR Race 0 Endura 0 34
17 08.06.2022 Sten Grosse 1:48.210 5.959 31.304 40.980 35.925 Honda Civic TCR Race 0 Endura 0 34
18 08.06.2022 Bjoern Wahlmeier 1:48.434 6.183 31.614 40.811 36.009 Audi RS3 TCR Race 0 Endura 0 34
19 08.06.2022 Rainer Deter 1:48.502 6.251 31.442 40.988 36.072 Volkswagen Golf GTI TCR Race 0 Endura 0 34
20 08.06.2022 Marius Maniek 1:48.604 6.353 31.676 40.922 36.007 Seat Cupra TCR Race 0 Endura 0 34
21 08.06.2022 Thomas Grube 1:48.641 6.390 31.511 41.053 36.078 Seat Cupra TCR Race 0 Endura 0 22
22 08.06.2022 Kalle Grabowski 1:48.659 6.408 31.455 40.940 36.264 Audi RS3 TCR Race 0 Endura 0 34
23 08.06.2022 Alex Gielczynski 1:49.595 7.344 31.821 41.213 36.561 Audi RS3 TCR Race 0 Endura 0 34

SERVER

0/31
virtualracing.org#4 GTC Training Standard
TrainingDaytona International Speedway - Road Course
0/31
virtualracing.org#5 GTC Training A
TrainingDaytona International Speedway - Road Course
0/24
virtualracing.org#30 ALT Training
TrainingFuji Speedway - Grand Prix Circuit 1968
0/32
virtualracing.org#33 GTC Starttest
TrainingDaytona International Speedway - Road Course